createdAt,value
2018-10-05T00:01:24.420Z,8.47
2018-10-05T00:03:52.700Z,8.30
2018-10-05T00:06:21.011Z,8.10
2018-10-05T00:08:49.287Z,8.57
2018-10-05T00:11:17.678Z,8.53
2018-10-05T00:13:45.961Z,8.27
2018-10-05T00:16:14.247Z,8.59
2018-10-05T00:18:43.048Z,9.44
2018-10-05T00:21:11.356Z,9.92
2018-10-05T00:23:39.659Z,10.23
2018-10-05T00:26:08.391Z,10.65
2018-10-05T00:28:37.583Z,10.84
2018-10-05T00:31:06.387Z,10.97
2018-10-05T00:33:34.662Z,10.97
2018-10-05T00:36:02.963Z,11.02
2018-10-05T00:38:31.250Z,10.91
2018-10-05T00:41:01.390Z,10.86
2018-10-05T00:43:30.628Z,10.51
2018-10-05T00:45:59.024Z,10.38
2018-10-05T00:48:27.316Z,10.16
2018-10-05T00:50:55.616Z,10.01
2018-10-05T00:53:23.922Z,10.05
2018-10-05T00:55:52.244Z,10.05
2018-10-05T00:58:20.700Z,9.70
2018-10-05T01:00:49.356Z,9.58
2018-10-05T01:03:17.626Z,9.72
2018-10-05T01:05:46.068Z,9.74
2018-10-05T01:08:14.329Z,9.80
2018-10-05T01:10:42.619Z,9.85
2018-10-05T01:13:11.551Z,9.97
2018-10-05T01:15:39.828Z,10.09
2018-10-05T01:18:08.091Z,10.19
2018-10-05T01:20:36.392Z,10.25
2018-10-05T01:23:04.659Z,10.09
2018-10-05T01:25:32.951Z,10.27
2018-10-05T01:28:01.252Z,10.25
2018-10-05T01:30:29.555Z,9.85
2018-10-05T01:32:57.823Z,9.78
2018-10-05T01:35:26.111Z,9.56
2018-10-05T01:37:54.399Z,9.31
2018-10-05T01:40:22.693Z,9.21
2018-10-05T01:42:50.955Z,9.20
2018-10-05T01:45:19.226Z,9.11
2018-10-05T01:47:47.507Z,8.96
2018-10-05T01:50:15.775Z,8.96
2018-10-05T01:52:44.059Z,8.87
2018-10-05T01:55:12.394Z,8.69
2018-10-05T01:57:40.676Z,8.60
2018-10-05T02:00:08.996Z,8.83
2018-10-05T02:02:37.358Z,9.23
2018-10-05T02:05:05.596Z,9.49
2018-10-05T02:07:33.895Z,9.65
2018-10-05T02:10:02.175Z,10.01
2018-10-05T02:12:30.476Z,10.21
2018-10-05T02:14:58.756Z,10.33
2018-10-05T02:17:27.056Z,10.47
2018-10-05T02:19:55.324Z,10.44
2018-10-05T02:22:23.622Z,10.48
2018-10-05T02:24:52.107Z,10.45
2018-10-05T02:27:20.407Z,10.44
2018-10-05T02:29:48.695Z,10.49
2018-10-05T02:32:17.000Z,10.44
2018-10-05T02:34:45.276Z,10.41
2018-10-05T02:37:13.595Z,10.41
2018-10-05T02:39:42.326Z,10.31
2018-10-05T02:42:10.628Z,10.27
2018-10-05T02:44:38.908Z,10.05
2018-10-05T02:47:07.211Z,9.79
2018-10-05T02:49:35.484Z,9.45
2018-10-05T02:52:03.803Z,9.17
2018-10-05T02:54:32.076Z,8.95
2018-10-05T02:57:00.367Z,8.77
2018-10-05T02:59:28.660Z,8.52
2018-10-05T03:02:08.139Z,8.50
2018-10-05T03:04:36.420Z,8.38
2018-10-05T03:07:04.715Z,8.15
2018-10-05T03:09:32.987Z,8.31
2018-10-05T03:12:01.996Z,8.11
2018-10-05T03:14:30.318Z,8.04
2018-10-05T03:16:58.559Z,7.98
2018-10-05T03:19:26.816Z,7.87
2018-10-05T03:21:55.116Z,7.63
2018-10-05T03:24:23.383Z,7.55
2018-10-05T03:26:51.794Z,7.52
2018-10-05T03:29:20.071Z,7.58
2018-10-05T03:31:48.366Z,7.71
2018-10-05T03:34:16.644Z,7.57
2018-10-05T03:36:44.911Z,7.58
2018-10-05T03:39:13.207Z,7.53
2018-10-05T03:41:41.475Z,7.55
2018-10-05T03:44:09.775Z,7.72
2018-10-05T03:46:38.075Z,7.69
2018-10-05T03:49:06.679Z,7.71
2018-10-05T03:51:35.108Z,7.85
2018-10-05T03:54:03.419Z,7.68
2018-10-05T03:56:31.728Z,7.68
2018-10-05T03:59:01.059Z,7.66
2018-10-05T04:01:29.350Z,7.64
2018-10-05T04:03:57.635Z,7.46
2018-10-05T04:06:25.911Z,7.52
2018-10-05T04:08:54.499Z,7.53
2018-10-05T04:11:22.764Z,7.43
2018-10-05T04:13:51.138Z,7.50
2018-10-05T04:16:19.431Z,7.33
2018-10-05T04:18:47.743Z,7.19
2018-10-05T04:21:16.066Z,7.14
2018-10-05T04:23:44.380Z,7.40
2018-10-05T04:26:12.702Z,7.75
2018-10-05T04:28:41.012Z,7.81
2018-10-05T04:31:09.355Z,8.02
2018-10-05T04:33:37.674Z,8.02
2018-10-05T04:36:06.040Z,8.61
2018-10-05T04:38:34.351Z,8.67
2018-10-05T04:41:02.655Z,8.38
2018-10-05T04:43:30.951Z,7.84
2018-10-05T04:45:59.245Z,7.66
2018-10-05T04:48:27.568Z,7.58
2018-10-05T04:50:55.873Z,7.53
2018-10-05T04:53:24.169Z,7.30
2018-10-05T04:55:52.491Z,7.12
2018-10-05T04:58:20.810Z,6.98
2018-10-05T05:00:49.103Z,6.83
2018-10-05T05:03:17.400Z,6.79
2018-10-05T05:05:45.713Z,6.69
2018-10-05T05:08:14.010Z,6.67
2018-10-05T05:10:42.317Z,6.62
2018-10-05T05:13:10.624Z,6.59
2018-10-05T05:15:39.046Z,6.88
2018-10-05T05:18:07.362Z,7.87
2018-10-05T05:20:35.678Z,8.33
2018-10-05T05:23:04.464Z,8.69
2018-10-05T05:25:32.955Z,9.07
2018-10-05T05:28:01.599Z,9.19
2018-10-05T05:30:29.946Z,9.29
2018-10-05T05:32:58.546Z,9.14
2018-10-05T05:35:26.852Z,9.24
2018-10-05T05:37:55.156Z,9.35
2018-10-05T05:40:23.623Z,9.44
2018-10-05T05:42:52.200Z,9.71
2018-10-05T05:45:20.991Z,9.69
2018-10-05T05:47:49.283Z,9.65
2018-10-05T05:50:17.613Z,9.66
2018-10-05T05:52:45.895Z,9.65
2018-10-05T05:55:14.187Z,9.67
2018-10-05T05:57:42.595Z,9.62
2018-10-05T06:00:10.899Z,9.65
2018-10-05T06:02:39.216Z,9.79
2018-10-05T06:05:07.535Z,9.91
2018-10-05T06:07:36.183Z,9.79
2018-10-05T06:10:04.584Z,9.83
2018-10-05T06:12:32.898Z,9.99
2018-10-05T06:15:01.564Z,10.03
2018-10-05T06:17:29.877Z,10.09
2018-10-05T06:19:58.187Z,10.28
2018-10-05T06:22:26.827Z,10.37
2018-10-05T06:24:54.956Z,10.48
2018-10-05T06:27:23.307Z,10.42
2018-10-05T06:29:51.590Z,10.46
2018-10-05T06:32:19.884Z,10.39
2018-10-05T06:34:48.191Z,10.34
2018-10-05T06:37:16.515Z,10.61
2018-10-05T06:39:45.131Z,10.75
2018-10-05T06:42:13.538Z,10.98
2018-10-05T06:44:41.776Z,12.86
2018-10-05T06:47:10.095Z,12.97
2018-10-05T06:49:38.400Z,15.19
2018-10-05T06:52:06.540Z,18.68
2018-10-05T06:54:34.831Z,20.20
2018-10-05T06:57:03.149Z,19.73
2018-10-05T06:59:31.434Z,19.47
2018-10-05T07:01:59.860Z,21.73
2018-10-05T07:04:28.058Z,22.26
2018-10-05T07:06:56.374Z,22.39
2018-10-05T07:09:24.743Z,20.96
2018-10-05T07:11:53.072Z,22.27
2018-10-05T07:14:21.362Z,23.86
2018-10-05T07:16:49.683Z,24.05
2018-10-05T07:19:17.986Z,22.59
2018-10-05T07:21:46.496Z,20.18
2018-10-05T07:24:14.791Z,22.00
2018-10-05T07:26:43.375Z,23.48
2018-10-05T07:29:11.676Z,24.15
2018-10-05T07:31:40.020Z,23.37
2018-10-05T07:34:08.362Z,25.88
2018-10-05T07:36:36.755Z,23.07
2018-10-05T07:39:07.683Z,23.48
2018-10-05T07:41:36.002Z,24.55
2018-10-05T07:44:04.315Z,24.35
2018-10-05T07:46:32.626Z,23.88
2018-10-05T07:49:00.910Z,24.67
2018-10-05T07:51:29.223Z,27.24
2018-10-05T07:53:57.508Z,27.26
2018-10-05T07:56:25.827Z,29.94
2018-10-05T07:58:54.130Z,29.96
2018-10-05T08:01:22.436Z,28.10
2018-10-05T08:03:50.794Z,26.02
2018-10-05T08:06:19.091Z,27.14
2018-10-05T08:08:47.399Z,28.41
2018-10-05T08:11:15.719Z,28.32
2018-10-05T08:13:44.047Z,29.84
2018-10-05T08:16:12.339Z,29.04
2018-10-05T08:18:40.667Z,27.65
2018-10-05T08:21:09.280Z,29.74
2018-10-05T08:23:37.818Z,30.71
2018-10-05T08:26:06.991Z,29.89
2018-10-05T08:28:35.323Z,31.90
2018-10-05T08:31:03.626Z,32.46
2018-10-05T08:33:31.955Z,32.38
2018-10-05T08:36:00.255Z,28.42
2018-10-05T08:38:28.602Z,29.29
2018-10-05T08:40:56.923Z,32.15
2018-10-05T08:43:25.248Z,34.39
2018-10-05T08:45:53.592Z,32.53
2018-10-05T08:48:21.935Z,33.95
2018-10-05T08:50:50.265Z,32.34
2018-10-05T08:53:18.574Z,33.71
2018-10-05T08:55:49.899Z,33.35
2018-10-05T08:58:18.239Z,30.40
2018-10-05T09:00:46.541Z,30.12
2018-10-05T09:03:14.887Z,31.05
2018-10-05T09:05:43.248Z,31.68
2018-10-05T09:08:11.615Z,33.52
2018-10-05T09:10:39.946Z,31.90
2018-10-05T09:13:08.267Z,29.33
2018-10-05T09:15:36.563Z,31.85
2018-10-05T09:18:04.954Z,32.81
2018-10-05T09:20:33.474Z,33.08
2018-10-05T09:23:01.891Z,31.68
2018-10-05T09:25:30.182Z,34.00
2018-10-05T09:27:58.710Z,32.78
2018-10-05T09:30:27.011Z,33.26
2018-10-05T09:32:55.595Z,33.08
2018-10-05T09:35:23.915Z,29.35
2018-10-05T09:37:52.713Z,33.49
2018-10-05T09:40:21.019Z,35.31
2018-10-05T09:42:49.355Z,34.27
2018-10-05T09:45:17.699Z,34.30
2018-10-05T09:47:45.998Z,31.67
2018-10-05T09:50:14.827Z,33.90
2018-10-05T09:52:43.186Z,34.05
2018-10-05T09:55:11.462Z,34.46
2018-10-05T09:57:39.991Z,36.33
2018-10-05T10:00:12.544Z,33.83
2018-10-05T10:02:46.052Z,35.26
2018-10-05T10:05:14.344Z,35.95
2018-10-05T10:07:42.655Z,36.72
2018-10-05T10:10:11.146Z,35.72
2018-10-05T10:12:39.426Z,39.04
2018-10-05T10:15:07.687Z,33.42
2018-10-05T10:17:35.970Z,36.76
2018-10-05T10:20:04.266Z,37.55
2018-10-05T10:22:32.575Z,35.15
2018-10-05T10:25:01.356Z,36.82
2018-10-05T10:27:29.684Z,36.64
2018-10-05T10:29:57.955Z,36.85
2018-10-05T10:32:26.496Z,34.89
2018-10-05T10:34:54.762Z,31.01
2018-10-05T10:37:23.048Z,34.04
2018-10-05T10:39:51.376Z,35.18
2018-10-05T10:42:19.611Z,35.98
2018-10-05T10:44:47.983Z,36.58
2018-10-05T10:47:16.403Z,36.13
2018-10-05T10:49:44.712Z,36.08
2018-10-05T10:52:13.131Z,37.46
2018-10-05T10:54:41.450Z,37.22
2018-10-05T10:57:09.753Z,37.89
2018-10-05T10:59:38.110Z,38.87
2018-10-05T11:02:06.392Z,39.16
2018-10-05T11:04:34.829Z,37.29
2018-10-05T11:07:02.995Z,36.23
2018-10-05T11:09:33.030Z,34.37
2018-10-05T11:12:01.308Z,36.44
2018-10-05T11:14:29.582Z,34.53
2018-10-05T11:16:57.882Z,34.53
2018-10-05T11:19:26.116Z,37.97
2018-10-05T11:21:54.414Z,37.42
2018-10-05T11:24:23.190Z,35.83
2018-10-05T11:26:51.462Z,35.64
2018-10-05T11:29:19.890Z,37.49
2018-10-05T11:31:48.150Z,34.74
2018-10-05T11:34:16.873Z,37.33
2018-10-05T11:36:45.135Z,37.02
2018-10-05T11:39:13.435Z,36.78
2018-10-05T11:41:41.702Z,37.98
2018-10-05T11:44:09.983Z,38.90
2018-10-05T11:46:38.258Z,36.85
2018-10-05T11:49:06.731Z,37.09
2018-10-05T11:51:34.995Z,35.93
2018-10-05T11:54:03.302Z,37.41
2018-10-05T11:56:31.563Z,37.75
2018-10-05T11:58:59.859Z,37.45
2018-10-05T12:01:28.131Z,39.28
2018-10-05T12:03:56.443Z,38.92
2018-10-05T12:06:24.706Z,37.59
2018-10-05T12:08:53.007Z,37.81
2018-10-05T12:11:21.295Z,36.85
2018-10-05T12:13:49.640Z,37.85
2018-10-05T12:16:18.151Z,38.67
2018-10-05T12:18:46.655Z,34.52
2018-10-05T12:21:14.947Z,36.29
2018-10-05T12:23:43.206Z,35.54
2018-10-05T12:26:11.516Z,35.52
2018-10-05T12:28:39.782Z,35.67
2018-10-05T12:31:08.063Z,34.44
2018-10-05T12:33:36.366Z,36.38
2018-10-05T12:36:04.707Z,34.86
2018-10-05T12:38:32.999Z,34.76
2018-10-05T12:41:01.522Z,35.19
2018-10-05T12:43:29.799Z,35.84
2018-10-05T12:45:58.582Z,35.40
2018-10-05T12:48:26.847Z,34.76
2018-10-05T12:50:55.138Z,32.76
2018-10-05T12:53:23.896Z,34.56
2018-10-05T12:55:52.192Z,34.61
2018-10-05T12:58:20.719Z,36.13
2018-10-05T13:00:49.003Z,35.23
2018-10-05T13:03:17.254Z,35.23
2018-10-05T13:05:45.575Z,34.37
2018-10-05T13:08:15.443Z,36.75
2018-10-05T13:10:43.733Z,37.60
2018-10-05T13:13:12.012Z,35.88
2018-10-05T13:15:40.290Z,35.84
2018-10-05T13:18:09.020Z,35.58
2018-10-05T13:20:37.332Z,36.03
2018-10-05T13:23:05.631Z,34.95
2018-10-05T13:25:34.858Z,35.49
2018-10-05T13:28:03.133Z,35.49
2018-10-05T13:30:31.462Z,35.70
2018-10-05T13:32:59.731Z,33.00
2018-10-05T13:35:28.252Z,36.01
2018-10-05T13:37:56.556Z,32.75
2018-10-05T13:40:25.012Z,33.06
2018-10-05T13:42:53.316Z,33.83
2018-10-05T13:45:21.578Z,33.97
2018-10-05T13:47:49.898Z,34.59
2018-10-05T13:50:18.179Z,32.46
2018-10-05T13:52:46.462Z,33.30
2018-10-05T13:55:14.726Z,33.11
2018-10-05T13:57:43.023Z,33.02
2018-10-05T14:00:11.312Z,33.61
2018-10-05T14:02:39.701Z,31.09
2018-10-05T14:05:07.995Z,32.55
2018-10-05T14:07:36.686Z,31.95
2018-10-05T14:10:06.259Z,30.77
2018-10-05T14:12:35.910Z,29.94
2018-10-05T14:15:04.246Z,31.09
2018-10-05T14:17:32.539Z,31.86
2018-10-05T14:20:01.306Z,32.10
2018-10-05T14:22:29.587Z,32.08
2018-10-05T14:24:58.499Z,32.89
2018-10-05T14:27:26.839Z,31.94
2018-10-05T14:29:55.136Z,31.90
2018-10-05T14:32:23.454Z,31.35
2018-10-05T14:34:51.753Z,30.75
2018-10-05T14:37:20.065Z,31.19
2018-10-05T14:39:48.343Z,31.51
2018-10-05T14:42:17.153Z,30.86
2018-10-05T14:44:45.415Z,29.58
2018-10-05T14:47:13.695Z,30.18
2018-10-05T14:49:41.975Z,30.08
2018-10-05T14:52:10.880Z,29.17
2018-10-05T14:54:39.139Z,30.10
2018-10-05T14:57:07.489Z,29.91
2018-10-05T14:59:35.714Z,30.07
2018-10-05T15:02:04.028Z,30.00
2018-10-05T15:04:32.299Z,29.37
2018-10-05T15:07:00.657Z,28.94
2018-10-05T15:09:28.905Z,28.76
2018-10-05T15:11:57.380Z,27.51
2018-10-05T15:14:26.266Z,28.21
2018-10-05T15:16:54.562Z,28.12
2018-10-05T15:19:22.844Z,27.60
2018-10-05T15:21:51.114Z,26.89
2018-10-05T15:24:19.396Z,26.78
2018-10-05T15:26:47.683Z,26.54
2018-10-05T15:29:15.959Z,26.64
2018-10-05T15:31:44.252Z,25.86
2018-10-05T15:34:12.523Z,25.52
2018-10-05T15:36:40.898Z,26.84
2018-10-05T15:39:09.703Z,26.95
2018-10-05T15:41:38.439Z,25.71
2018-10-05T15:44:06.955Z,25.18
2018-10-05T15:47:15.810Z,25.19
2018-10-05T15:49:44.431Z,24.71
2018-10-05T15:52:12.809Z,24.25
2018-10-05T15:54:41.027Z,24.19
2018-10-05T15:57:09.380Z,23.20
2018-10-05T15:59:38.029Z,21.96
2018-10-05T16:02:06.366Z,21.55
2018-10-05T16:04:34.642Z,20.93
2018-10-05T16:07:02.939Z,21.00
2018-10-05T16:09:31.300Z,21.13
2018-10-05T16:11:59.592Z,20.86
2018-10-05T16:14:27.931Z,20.87
2018-10-05T16:16:56.239Z,20.78
2018-10-05T16:19:24.531Z,20.53
2018-10-05T16:21:52.787Z,20.31
2018-10-05T16:24:26.040Z,19.99
2018-10-05T16:26:54.307Z,20.17
2018-10-05T16:29:22.606Z,19.89
2018-10-05T16:31:50.866Z,19.66
2018-10-05T16:34:19.180Z,19.35
2018-10-05T16:36:47.555Z,19.05
2018-10-05T16:39:15.855Z,18.93
2018-10-05T16:41:44.138Z,18.52
2018-10-05T16:44:12.682Z,18.28
2018-10-05T16:46:41.088Z,18.06
2018-10-05T16:49:11.235Z,17.88
2018-10-05T16:51:40.098Z,17.71
2018-10-05T16:54:08.547Z,17.73
2018-10-05T16:56:37.686Z,17.60
2018-10-05T16:59:06.343Z,17.40
2018-10-05T17:01:34.776Z,17.43
2018-10-05T17:04:03.276Z,17.30
2018-10-05T17:06:31.711Z,17.17
2018-10-05T17:09:05.622Z,17.04
2018-10-05T17:11:34.929Z,16.98
2018-10-05T17:14:03.322Z,16.96
2018-10-05T17:16:31.686Z,16.80
2018-10-05T17:19:00.095Z,16.76
2018-10-05T17:21:28.375Z,16.76
2018-10-05T17:23:56.634Z,16.76
2018-10-05T17:26:24.911Z,16.74
2018-10-05T17:28:53.185Z,16.66
2018-10-05T17:31:21.476Z,16.64
2018-10-05T17:33:49.762Z,16.65
2018-10-05T17:36:18.056Z,16.52
2018-10-05T17:38:46.342Z,16.52
2018-10-05T17:41:14.639Z,16.43
2018-10-05T17:43:42.920Z,16.40
2018-10-05T17:46:11.289Z,16.50
2018-10-05T17:48:39.835Z,16.37
2018-10-05T17:51:08.127Z,16.36
2018-10-05T17:53:36.968Z,16.22
2018-10-05T17:56:05.336Z,16.21
2018-10-05T17:58:33.612Z,16.22
2018-10-05T18:01:01.912Z,16.18
2018-10-05T18:03:30.187Z,16.13
2018-10-05T18:05:58.466Z,16.04
2018-10-05T18:08:26.778Z,16.03
2018-10-05T18:10:55.023Z,16.00
2018-10-05T18:13:23.291Z,15.94
2018-10-05T18:15:51.592Z,15.92
2018-10-05T18:18:19.858Z,15.89
2018-10-05T18:20:48.160Z,15.85
2018-10-05T18:23:16.951Z,15.81
2018-10-05T18:25:45.552Z,15.79
2018-10-05T18:28:13.811Z,15.77
2018-10-05T18:30:42.109Z,15.59
2018-10-05T18:33:10.677Z,15.19
2018-10-05T18:35:38.970Z,14.65
2018-10-05T18:38:07.250Z,14.52
2018-10-05T18:40:35.544Z,14.67
2018-10-05T18:43:03.822Z,14.23
2018-10-05T18:45:33.260Z,14.06
2018-10-05T18:48:01.572Z,13.82
2018-10-05T18:50:29.879Z,13.61
2018-10-05T18:52:58.146Z,13.47
2018-10-05T18:55:26.474Z,13.36
2018-10-05T18:57:54.799Z,13.26
2018-10-05T19:00:23.181Z,13.04
2018-10-05T19:02:51.374Z,12.93
2018-10-05T19:05:19.682Z,12.89
2018-10-05T19:07:47.958Z,12.86
2018-10-05T19:10:16.255Z,12.85
2018-10-05T19:12:44.527Z,12.72
2018-10-05T19:15:12.814Z,12.52
2018-10-05T19:17:41.102Z,12.52
2018-10-05T19:20:09.411Z,12.49
2018-10-05T19:22:38.176Z,12.47
2018-10-05T19:25:06.496Z,12.46
2018-10-05T19:27:34.767Z,12.31
2018-10-05T19:30:03.061Z,12.22
2018-10-05T19:32:31.353Z,12.23
2018-10-05T19:34:59.634Z,12.22
2018-10-05T19:37:28.007Z,12.08
2018-10-05T19:39:56.316Z,12.09
2018-10-05T19:42:24.629Z,11.97
2018-10-05T19:44:52.891Z,12.08
2018-10-05T19:47:21.247Z,12.04
2018-10-05T19:49:49.508Z,12.06
2018-10-05T19:52:17.788Z,11.96
2018-10-05T19:54:46.058Z,11.94
2018-10-05T19:57:14.372Z,11.96
2018-10-05T19:59:42.656Z,11.89
2018-10-05T20:02:11.058Z,11.70
2018-10-05T20:04:39.271Z,11.77
2018-10-05T20:07:07.591Z,11.65
2018-10-05T20:09:35.863Z,11.56
2018-10-05T20:12:04.176Z,11.70
2018-10-05T20:14:32.480Z,11.69
2018-10-05T20:17:00.802Z,11.89
2018-10-05T20:19:29.068Z,11.93
2018-10-05T20:21:57.364Z,12.12
2018-10-05T20:24:25.672Z,12.11
2018-10-05T20:26:53.959Z,11.88
2018-10-05T20:29:22.242Z,11.67
2018-10-05T20:31:50.562Z,11.56
2018-10-05T20:34:18.841Z,11.66
2018-10-05T20:36:47.601Z,12.51
2018-10-05T20:39:15.737Z,12.55
2018-10-05T20:41:44.029Z,12.48
2018-10-05T20:44:12.316Z,13.46
2018-10-05T20:46:40.610Z,14.14
2018-10-05T20:49:08.878Z,14.27
2018-10-05T20:51:37.172Z,14.29
2018-10-05T20:54:05.484Z,14.49
2018-10-05T20:56:34.259Z,14.46
2018-10-05T20:59:02.551Z,14.23
2018-10-05T21:01:31.020Z,14.41
2018-10-05T21:03:59.318Z,14.52
2018-10-05T21:06:27.638Z,14.70
2018-10-05T21:08:55.915Z,14.78
2018-10-05T21:11:24.199Z,14.88
2018-10-05T21:13:52.455Z,15.01
2018-10-05T21:16:20.756Z,15.05
2018-10-05T21:18:49.023Z,15.16
2018-10-05T21:21:17.303Z,15.23
2018-10-05T21:23:45.575Z,15.11
2018-10-05T21:26:13.874Z,15.22
2018-10-05T21:28:42.350Z,15.12
2018-10-05T21:31:10.623Z,15.12
2018-10-05T21:33:38.900Z,15.20
2018-10-05T21:36:07.223Z,15.06
2018-10-05T21:38:35.541Z,15.02
2018-10-05T21:41:04.203Z,15.05
2018-10-05T21:43:32.477Z,15.10
2018-10-05T21:46:00.798Z,15.11
2018-10-05T21:48:29.239Z,14.98
2018-10-05T21:50:57.535Z,14.96
2018-10-05T21:53:25.852Z,14.92
2018-10-05T21:55:54.140Z,14.95
2018-10-05T21:58:22.413Z,14.92
2018-10-05T22:00:51.023Z,14.96
2018-10-05T22:03:19.293Z,14.90
2018-10-05T22:05:47.909Z,14.91
2018-10-05T22:08:16.300Z,15.01
2018-10-05T22:10:44.570Z,15.02
2018-10-05T22:13:12.866Z,14.97
2018-10-05T22:15:41.124Z,15.09
2018-10-05T22:18:09.441Z,14.95
2018-10-05T22:20:37.722Z,15.00
2018-10-05T22:23:06.040Z,14.92
2018-10-05T22:25:34.316Z,14.88
2018-10-05T22:28:02.607Z,14.84
2018-10-05T22:30:30.874Z,14.74
2018-10-05T22:32:59.174Z,14.68
2018-10-05T22:35:27.479Z,14.68
2018-10-05T22:37:56.522Z,14.57
2018-10-05T22:40:24.807Z,14.41
2018-10-05T22:42:53.111Z,14.50
2018-10-05T22:45:21.382Z,14.45
2018-10-05T22:47:49.680Z,14.43
2018-10-05T22:50:17.954Z,14.27
2018-10-05T22:52:46.251Z,14.29
2018-10-05T22:55:14.509Z,14.29
2018-10-05T22:57:42.824Z,14.16
2018-10-05T23:00:13.089Z,14.20
2018-10-05T23:02:41.866Z,14.13
2018-10-05T23:05:11.004Z,13.88
2018-10-05T23:07:39.551Z,13.77
2018-10-05T23:10:07.878Z,13.75
2018-10-05T23:12:36.484Z,13.53
2018-10-05T23:15:05.034Z,13.77
2018-10-05T23:17:34.482Z,13.41
2018-10-05T23:20:04.072Z,13.43
2018-10-05T23:22:33.618Z,13.24
2018-10-05T23:25:07.196Z,13.24
2018-10-05T23:27:35.538Z,13.06
2018-10-05T23:30:07.118Z,12.86
2018-10-05T23:32:37.859Z,12.82
2018-10-05T23:35:06.603Z,12.59
2018-10-05T23:37:34.883Z,12.59
2018-10-05T23:40:03.159Z,12.56
2018-10-05T23:42:31.750Z,12.42
2018-10-05T23:45:00.019Z,12.44
2018-10-05T23:47:28.323Z,12.34
2018-10-05T23:49:56.599Z,12.40
2018-10-05T23:52:41.147Z,12.30
2018-10-05T23:55:09.434Z,12.31
2018-10-05T23:57:38.343Z,12.28
